Time,TemperatureF,DewpointF,PressureIn,WindDirection,WindDirectionDegrees,WindSpeedMPH,WindSpeedGustMPH,Humidity,HourlyPrecipIn,Conditions,Clouds,dailyrainin,SoftwareType,DateUTC
2013-03-24 00:00:00,48.7,37.5,30.00,NNW,338,0.0,0.0,65,0.00,,CLR,0.00,VWS V13.01,2013-03-24 07:00:00,
2013-03-24 00:15:00,48.3,37.5,30.00,NNW,338,0.0,0.0,66,0.00,,CLR,0.00,VWS V13.01,2013-03-24 07:15:00,
2013-03-24 00:30:00,47.7,38.8,30.00,NNW,338,0.0,0.0,71,0.00,,CLR,0.00,VWS V13.01,2013-03-24 07:30:00,
2013-03-24 00:45:00,47.1,37.5,30.00,NNW,338,0.0,0.0,69,0.00,,CLR,0.00,VWS V13.01,2013-03-24 07:45:00,
2013-03-24 01:00:00,46.6,36.6,30.00,NNW,338,0.0,0.0,68,0.00,,CLR,0.00,VWS V13.01,2013-03-24 08:00:00,
2013-03-24 01:15:00,46.2,38.0,30.00,NNW,338,0.0,0.0,73,0.00,,CLR,0.00,VWS V13.01,2013-03-24 08:15:00,
2013-03-24 01:30:00,45.4,38.3,30.00,NNW,338,0.0,0.0,76,0.00,,CLR,0.00,VWS V13.01,2013-03-24 08:30:00,
2013-03-24 01:45:00,45.0,38.9,30.00,NNW,338,0.0,0.0,79,0.00,,CLR,0.00,VWS V13.01,2013-03-24 08:45:00,
2013-03-24 02:00:00,44.7,38.9,30.01,NNW,338,0.0,0.0,80,0.00,,CLR,0.00,VWS V13.01,2013-03-24 09:00:00,
2013-03-24 02:15:00,44.2,38.8,30.01,NNW,338,0.0,0.0,81,0.00,,CLR,0.00,VWS V13.01,2013-03-24 09:15:00,
2013-03-24 02:30:00,44.3,39.2,30.01,NNW,338,0.0,0.0,82,0.00,,CLR,0.00,VWS V13.01,2013-03-24 09:30:00,
2013-03-24 02:45:00,44.3,38.5,30.01,NNW,338,0.0,0.0,80,0.00,,CLR,0.00,VWS V13.01,2013-03-24 09:45:00,
2013-03-24 03:00:00,44.0,38.5,30.00,NNW,338,0.0,0.0,81,0.00,,CLR,0.00,VWS V13.01,2013-03-24 10:00:00,
2013-03-24 03:15:00,43.7,38.3,30.01,NNW,338,0.0,0.0,81,0.00,,CLR,0.00,VWS V13.01,2013-03-24 10:15:00,
2013-03-24 03:30:00,43.3,37.9,30.01,NNW,338,0.0,0.0,81,0.00,,CLR,0.00,VWS V13.01,2013-03-24 10:30:00,
2013-03-24 03:45:00,42.9,37.5,30.01,NNW,338,0.0,0.0,81,0.00,,CLR,0.00,VWS V13.01,2013-03-24 10:45:00,
2013-03-24 04:00:00,42.6,37.5,30.00,NNW,338,0.0,0.0,82,0.00,,CLR,0.00,VWS V13.01,2013-03-24 11:00:00,
2013-03-24 04:15:00,42.4,37.3,30.00,NNW,338,0.0,0.0,82,0.00,,CLR,0.00,VWS V13.01,2013-03-24 11:15:00,
2013-03-24 04:30:00,42.1,37.0,30.01,NNW,338,0.0,0.0,82,0.00,,CLR,0.00,VWS V13.01,2013-03-24 11:30:00,
2013-03-24 04:45:00,41.9,37.1,30.01,NNW,338,2.0,5.0,83,0.00,,CLR,0.00,VWS V13.01,2013-03-24 11:45:00,
2013-03-24 05:00:00,41.7,36.9,30.00,NNW,338,3.0,6.0,83,0.00,,CLR,0.00,VWS V13.01,2013-03-24 12:00:00,
2013-03-24 05:15:00,41.6,37.1,30.00,NNW,338,2.0,5.0,84,0.00,,CLR,0.00,VWS V13.01,2013-03-24 12:15:00,
2013-03-24 05:30:00,42.2,37.7,30.00,NNW,338,0.0,4.0,84,0.00,,CLR,0.00,VWS V13.01,2013-03-24 12:30:00,
2013-03-24 05:45:00,42.2,37.4,30.01,NNW,338,2.0,5.0,83,0.00,,CLR,0.00,VWS V13.01,2013-03-24 12:45:00,
2013-03-24 06:00:00,41.8,37.0,30.01,NNW,338,3.0,6.0,83,0.00,,CLR,0.00,VWS V13.01,2013-03-24 13:00:00,
2013-03-24 06:15:00,41.5,37.0,30.02,NNW,338,3.0,6.0,84,0.00,,CLR,0.00,VWS V13.01,2013-03-24 13:15:00,
2013-03-24 06:30:00,41.8,37.3,30.02,NNW,338,5.0,8.0,84,0.00,,CLR,0.00,VWS V13.01,2013-03-24 13:30:00,
2013-03-24 06:45:00,41.8,37.0,30.02,NNW,338,4.0,7.0,83,0.00,,CLR,0.00,VWS V13.01,2013-03-24 13:45:00,
2013-03-24 07:00:00,41.8,37.0,30.02,NNW,338,4.0,6.0,83,0.00,,CLR,0.00,VWS V13.01,2013-03-24 14:00:00,
2013-03-24 07:15:00,41.9,37.1,30.02,NNW,338,3.0,7.0,83,0.00,,CLR,0.00,VWS V13.01,2013-03-24 14:15:00,
2013-03-24 07:30:00,41.8,37.3,30.03,NNW,338,4.0,8.0,84,0.00,,CLR,0.00,VWS V13.01,2013-03-24 14:30:00,
2013-03-24 07:45:00,42.0,37.5,30.03,NNW,338,3.0,7.0,84,0.00,,CLR,0.00,VWS V13.01,2013-03-24 14:45:00,
2013-03-24 08:00:00,43.1,38.3,30.04,NNW,338,5.0,8.0,83,0.00,,CLR,0.00,VWS V13.01,2013-03-24 15:00:00,
2013-03-24 08:15:00,45.1,39.0,30.04,North,0,5.0,10.0,79,0.00,,CLR,0.00,VWS V13.01,2013-03-24 15:15:00,
2013-03-24 08:30:00,48.0,39.4,30.03,North,0,4.0,9.0,72,0.00,,CLR,0.00,VWS V13.01,2013-03-24 15:30:00,
2013-03-24 08:45:00,50.8,40.2,30.04,NNW,338,5.0,10.0,67,0.00,,CLR,0.00,VWS V13.01,2013-03-24 15:45:00,
2013-03-24 09:00:00,53.6,41.3,30.04,North,0,3.0,8.0,63,0.00,,CLR,0.00,VWS V13.01,2013-03-24 16:00:00,
2013-03-24 09:15:00,56.2,41.6,30.04,North,0,4.0,8.0,58,0.00,,CLR,0.00,VWS V13.01,2013-03-24 16:15:00,
2013-03-24 09:30:00,58.9,41.3,30.04,North,0,4.0,8.0,52,0.00,,CLR,0.00,VWS V13.01,2013-03-24 16:30:00,
2013-03-24 09:45:00,60.9,42.7,30.04,NNW,338,4.0,8.0,51,0.00,,CLR,0.00,VWS V13.01,2013-03-24 16:45:00,
2013-03-24 10:00:00,62.3,40.7,30.04,North,0,3.0,8.0,45,0.00,,CLR,0.00,VWS V13.01,2013-03-24 17:00:00,
2013-03-24 10:15:00,63.3,42.2,30.04,North,0,3.0,9.0,46,0.00,,CLR,0.00,VWS V13.01,2013-03-24 17:15:00,
2013-03-24 10:30:00,64.5,41.5,30.03,NE,45,3.0,7.0,43,0.00,,CLR,0.00,VWS V13.01,2013-03-24 17:30:00,
2013-03-24 10:45:00,65.0,40.8,30.04,NNE,22,2.0,7.0,41,0.00,,CLR,0.00,VWS V13.01,2013-03-24 17:45:00,
2013-03-24 11:00:00,65.8,42.1,30.03,NE,45,2.0,7.0,42,0.00,,CLR,0.00,VWS V13.01,2013-03-24 18:00:00,
2013-03-24 11:15:00,67.0,42.5,30.03,NE,45,1.0,6.0,41,0.00,,CLR,0.00,VWS V13.01,2013-03-24 18:15:00,
2013-03-24 11:30:00,68.1,41.6,30.02,NNE,22,1.0,4.0,38,0.00,,CLR,0.00,VWS V13.01,2013-03-24 18:30:00,
2013-03-24 11:45:00,69.3,44.6,30.02,NNE,22,1.0,5.0,41,0.00,,CLR,0.00,VWS V13.01,2013-03-24 18:45:00,
2013-03-24 12:00:00,68.7,43.4,30.02,ENE,68,1.0,6.0,40,0.00,,CLR,0.00,VWS V13.01,2013-03-24 19:00:00,
2013-03-24 12:15:00,68.2,43.6,30.02,SE,135,3.0,8.0,41,0.00,,CLR,0.00,VWS V13.01,2013-03-24 19:15:00,
2013-03-24 12:30:00,69.0,42.4,30.01,SSE,158,2.0,9.0,38,0.00,,CLR,0.00,VWS V13.01,2013-03-24 19:30:00,
2013-03-24 12:45:00,69.3,44.0,30.01,SSE,158,3.0,9.0,40,0.00,,CLR,0.00,VWS V13.01,2013-03-24 19:45:00,
2013-03-24 13:00:00,69.6,44.9,30.01,SSE,158,2.0,10.0,41,0.00,,CLR,0.00,VWS V13.01,2013-03-24 20:00:00,
2013-03-24 13:15:00,71.2,41.4,30.01,South,180,2.0,7.0,34,0.00,,CLR,0.00,VWS V13.01,2013-03-24 20:15:00,
2013-03-24 13:30:00,73.0,43.0,30.00,West,270,2.0,7.0,34,0.00,,CLR,0.00,VWS V13.01,2013-03-24 20:30:00,
2013-03-24 13:45:00,74.3,40.0,29.99,WNW,292,2.0,7.0,29,0.00,,CLR,0.00,VWS V13.01,2013-03-24 20:45:00,
2013-03-24 14:00:00,74.0,40.6,29.98,WNW,292,2.0,8.0,30,0.00,,CLR,0.00,VWS V13.01,2013-03-24 21:00:00,
2013-03-24 14:15:00,75.1,40.7,29.97,WNW,292,1.0,5.0,29,0.00,,CLR,0.00,VWS V13.01,2013-03-24 21:15:00,
2013-03-24 14:30:00,75.4,42.7,29.96,WNW,292,2.0,8.0,31,0.00,,CLR,0.00,VWS V13.01,2013-03-24 21:30:00,
2013-03-24 14:45:00,74.5,43.5,29.94,SW,225,2.0,7.0,33,0.00,,CLR,0.00,VWS V13.01,2013-03-24 21:45:00,
2013-03-24 15:00:00,74.2,41.7,29.94,SSE,158,3.0,11.0,31,0.00,,CLR,0.00,VWS V13.01,2013-03-24 22:00:00,
2013-03-24 15:15:00,74.5,41.9,29.94,SSE,158,3.0,9.0,31,0.00,,CLR,0.00,VWS V13.01,2013-03-24 22:15:00,
2013-03-24 15:30:00,74.2,43.3,29.93,SSE,158,3.0,9.0,33,0.00,,CLR,0.00,VWS V13.01,2013-03-24 22:30:00,
2013-03-24 15:45:00,74.2,39.9,29.92,SSE,158,3.0,10.0,29,0.00,,CLR,0.00,VWS V13.01,2013-03-24 22:45:00,
2013-03-24 16:00:00,74.1,39.8,29.92,South,180,5.0,11.0,29,0.00,,CLR,0.00,VWS V13.01,2013-03-24 23:00:00,
2013-03-24 16:15:00,74.1,41.6,29.92,SSE,158,4.0,11.0,31,0.00,,CLR,0.00,VWS V13.01,2013-03-24 23:15:00,
2013-03-24 16:30:00,74.1,41.6,29.91,SSW,202,3.0,9.0,31,0.00,,CLR,0.00,VWS V13.01,2013-03-24 23:30:00,
2013-03-24 16:45:00,73.7,43.6,29.90,South,180,3.0,11.0,34,0.00,,CLR,0.00,VWS V13.01,2013-03-24 23:45:00,
2013-03-24 17:00:00,73.0,43.8,29.90,South,180,3.0,8.0,35,0.00,,CLR,0.00,VWS V13.01,2013-03-25 00:00:00,
2013-03-24 17:15:00,71.8,41.2,29.89,SSW,202,5.0,11.0,33,0.00,,CLR,0.00,VWS V13.01,2013-03-25 00:15:00,
2013-03-24 17:30:00,70.4,42.9,29.89,South,180,5.0,10.0,37,0.00,,CLR,0.00,VWS V13.01,2013-03-25 00:30:00,
2013-03-24 17:45:00,69.7,43.0,29.89,South,180,6.0,9.0,38,0.00,,CLR,0.00,VWS V13.01,2013-03-25 00:45:00,
2013-03-24 18:00:00,69.4,43.4,29.89,South,180,8.0,11.0,39,0.00,,CLR,0.00,VWS V13.01,2013-03-25 01:00:00,
2013-03-24 18:15:00,68.6,44.0,29.89,South,180,6.0,10.0,41,0.00,,CLR,0.00,VWS V13.01,2013-03-25 01:15:00,
2013-03-24 18:30:00,67.7,42.5,29.89,South,180,6.0,8.0,40,0.00,,CLR,0.00,VWS V13.01,2013-03-25 01:30:00,
2013-03-24 18:45:00,66.9,42.5,29.89,South,180,5.0,7.0,41,0.00,,CLR,0.00,VWS V13.01,2013-03-25 01:45:00,
2013-03-24 19:00:00,66.2,42.5,29.89,South,180,4.0,6.0,42,0.00,,CLR,0.00,VWS V13.01,2013-03-25 02:00:00,
2013-03-24 19:15:00,65.4,41.7,29.88,South,180,4.0,6.0,42,0.00,,CLR,0.00,VWS V13.01,2013-03-25 02:15:00,
2013-03-24 19:30:00,64.5,42.1,29.88,South,180,5.0,7.0,44,0.00,,CLR,0.00,VWS V13.01,2013-03-25 02:30:00,
2013-03-24 19:45:00,63.2,41.5,29.88,South,180,5.0,7.0,45,0.00,,CLR,0.00,VWS V13.01,2013-03-25 02:45:00,
2013-03-24 19:54:00,63.2,41.5,29.88,South,180,5.0,7.0,45,0.00,,CLR,0.00,VWS V13.01,2013-03-25 02:54:00,
2013-03-24 20:00:00,62.4,40.8,29.88,South,173,4.0,5.0,45,0.00,,CLR,0.00,VWS V13.01,2013-03-25 03:00:00,
2013-03-24 20:15:00,61.6,41.7,29.89,South,180,5.0,7.0,48,0.00,,CLR,0.00,VWS V13.01,2013-03-25 03:15:00,
2013-03-24 20:30:00,60.7,41.5,29.88,South,180,4.0,5.0,49,0.00,,CLR,0.00,VWS V13.01,2013-03-25 03:30:00,
2013-03-24 20:45:00,59.9,42.7,29.88,South,180,4.0,7.0,53,0.00,,---,0.00,VWS V14.01,2013-03-25 03:45:00,
2013-03-24 20:47:00,60.1,41.9,29.88,South,173,5.0,5.0,51,0.00,,CLR,0.00,VWS V13.01,2013-03-25 03:47:00,
2013-03-24 20:53:00,59.8,43.6,29.88,South,173,5.0,6.0,55,0.00,,CLR,0.00,VWS V13.01,2013-03-25 03:53:00,
2013-03-24 20:59:00,59.4,43.2,29.89,South,173,4.0,7.0,55,0.00,,CLR,0.00,VWS V13.01,2013-03-25 03:59:00,
2013-03-24 21:00:00,59.0,43.8,29.89,South,180,4.0,7.0,57,0.00,,---,0.00,VWS V14.01,2013-03-25 04:00:00,
2013-03-24 21:01:00,59.3,43.6,29.89,South,174,2.0,7.0,56,0.00,,CLR,0.00,VWS V13.01,2013-03-25 04:01:00,
2013-03-24 21:02:00,59.2,44.0,29.89,South,173,5.0,7.0,57,0.00,,CLR,0.00,VWS V13.01,2013-03-25 04:02:00,
2013-03-24 21:04:00,59.1,43.9,29.89,South,173,4.0,7.0,57,0.00,,CLR,0.00,VWS V13.01,2013-03-25 04:04:00,
2013-03-24 21:05:00,59.0,43.8,29.89,South,173,4.0,5.0,57,0.00,,CLR,0.00,VWS V13.01,2013-03-25 04:05:00,
2013-03-24 21:11:00,58.6,43.4,29.90,South,173,4.0,6.0,57,0.00,,CLR,0.00,VWS V13.01,2013-03-25 04:11:00,
2013-03-24 21:15:00,58.3,44.0,29.89,South,180,3.0,6.0,59,0.00,,---,0.00,VWS V14.01,2013-03-25 04:15:00,
2013-03-24 21:18:00,58.3,43.6,29.89,South,173,2.0,6.0,58,0.00,,CLR,0.00,VWS V13.01,2013-03-25 04:18:00,
2013-03-24 21:24:00,58.1,43.4,29.89,South,173,5.0,5.0,58,0.00,,CLR,0.00,VWS V13.01,2013-03-25 04:24:00,
2013-03-24 21:30:00,58.3,43.2,29.89,South,180,4.0,5.0,57,0.00,,CLR,0.00,VWS V13.01,2013-03-25 04:30:00,
2013-03-24 21:45:00,58.4,43.2,29.90,South,180,2.0,5.0,57,0.00,,CLR,0.00,VWS V13.01,2013-03-25 04:45:00,
2013-03-24 22:00:00,58.3,43.6,29.89,South,180,0.0,1.0,58,0.00,,CLR,0.00,VWS V13.01,2013-03-25 05:00:00,
2013-03-24 22:15:00,58.2,43.5,29.89,South,180,0.0,0.0,58,0.00,,CLR,0.00,VWS V13.01,2013-03-25 05:15:00,
2013-03-24 22:30:00,57.8,44.0,29.89,South,180,0.0,0.0,60,0.00,,CLR,0.00,VWS V13.01,2013-03-25 05:30:00,
2013-03-24 22:45:00,56.9,44.5,29.90,South,180,1.0,4.0,63,0.00,,CLR,0.00,VWS V13.01,2013-03-25 05:45:00,
2013-03-24 23:00:00,56.2,44.6,29.90,South,180,1.0,4.0,65,0.00,,CLR,0.00,VWS V13.01,2013-03-25 06:00:00,
2013-03-24 23:15:00,55.5,44.7,29.90,South,180,0.0,0.0,67,0.00,,CLR,0.00,VWS V13.01,2013-03-25 06:15:00,
2013-03-24 23:30:00,54.3,44.0,29.89,South,180,0.0,0.0,68,0.00,,CLR,0.00,VWS V13.01,2013-03-25 06:30:00,
2013-03-24 23:45:00,52.4,43.7,29.90,South,180,1.0,6.0,72,0.00,,CLR,0.00,VWS V13.01,2013-03-25 06:45:00,